Bogue Field Mcalf Information

FAA: NJM - ICAO: KNJM

Bogue Field Mcalf (Airport) Location

State North Carolina
County Carteret
City Swansboro
Bogue Field Mcalf (Airport) is 4 miles east of Swansboro, NC.
Latitude 34-41-24.4800N
Longitude 077-01-44.5100W
Elevation 21ft

Bogue Field Mcalf METARs

METAR KNJM 262157Z AUTO 02010G19KT 10SM CLR 05/M06 A3029 RMK AO2 SLP262 T00501056 $
Altimeter 30.29"
Temperature 5.0°C (41.0°F)
Wind 20° at 10KT with gusts to 19KT
Clouds Skies are clear.
Visibility 10.0mi
Time observed: 2022-01-26T21:57:00Z

Bogue Field Mcalf (Airport) Details

Status Operational
Activation June 1943
Ownership Military - Navy
Usage Private
Chart CHARLOTTE
ATC on-site Yes
Beacon schedule sunset-sunrise
Beacon color clear green

Bogue Field Mcalf (Airport) Contacts

Owner US NAVY
Owner address OCEANOGRAPHIC OFC - CODE 3142, WASHINGTON, DC 20373
Owner phone N/A
Manager BARRY R. INMAN
Manager address 6496 SILK HOPE LIBERTY RD, SILER CITY, NC 27344
Manager phone 919-663-3304

Bogue Field Mcalf Radio Frequencies

Bogue Field Mcalf (Airport) Radio Frequencies

UNICOM N/A
Common traffic advisory frequency (CTAF) 126.45